sensor_id;sensor_type;location;lat;lon;timestamp;pressure;altitude;pressure_sealevel;temperature;humidity
21877;BME280;11103;43.788;23.710;2023-04-30T00:02:09;-14922.56;;;-144.67;100.00
21877;BME280;11103;43.788;23.710;2023-04-30T00:04:34;-14922.56;;;-144.67;100.00
21877;BME280;11103;43.788;23.710;2023-04-30T00:07:01;-14922.56;;;-144.67;100.00
21877;BME280;11103;43.788;23.710;2023-04-30T00:09:26;-14922.56;;;-144.67;100.00
21877;BME280;11103;43.788;23.710;2023-04-30T00:11:52;-14922.56;;;-144.67;100.00
21877;BME280;11103;43.788;23.710;2023-04-30T00:14:17;-14922.56;;;-144.67;100.00
21877;BME280;11103;43.788;23.710;2023-04-30T00:16:42;-14922.56;;;-144.67;100.00
21877;BME280;11103;43.788;23.710;2023-04-30T00:19:08;-14922.56;;;-144.67;100.00
21877;BME280;11103;43.788;23.710;2023-04-30T00:21:34;-14922.56;;;-144.67;100.00
21877;BME280;11103;43.788;23.710;2023-04-30T00:23:59;-14922.56;;;-144.67;100.00
21877;BME280;11103;43.788;23.710;2023-04-30T00:26:25;-14922.56;;;-144.67;100.00
21877;BME280;11103;43.788;23.710;2023-04-30T00:28:51;-14922.56;;;-144.67;100.00
21877;BME280;11103;43.788;23.710;2023-04-30T00:31:16;-14922.56;;;-144.67;100.00
21877;BME280;11103;43.788;23.710;2023-04-30T00:33:41;-14922.56;;;-144.67;100.00
21877;BME280;11103;43.788;23.710;2023-04-30T00:36:07;-14922.56;;;-144.67;100.00
21877;BME280;11103;43.788;23.710;2023-04-30T00:38:32;-14922.56;;;-144.67;100.00
21877;BME280;11103;43.788;23.710;2023-04-30T00:40:58;-14922.56;;;-144.67;100.00
21877;BME280;11103;43.788;23.710;2023-04-30T00:43:23;-14922.56;;;-144.67;100.00
21877;BME280;11103;43.788;23.710;2023-04-30T00:45:49;-14922.56;;;-144.67;100.00
21877;BME280;11103;43.788;23.710;2023-04-30T00:48:15;-14922.56;;;-144.67;100.00
21877;BME280;11103;43.788;23.710;2023-04-30T00:50:42;-14922.56;;;-144.67;100.00
21877;BME280;11103;43.788;23.710;2023-04-30T00:53:08;-14922.56;;;-144.67;100.00
21877;BME280;11103;43.788;23.710;2023-04-30T00:55:34;-14922.56;;;-144.67;100.00
21877;BME280;11103;43.788;23.710;2023-04-30T00:58:00;-14922.56;;;-144.67;100.00
21877;BME280;11103;43.788;23.710;2023-04-30T01:00:26;-14922.56;;;-144.67;100.00
21877;BME280;11103;43.788;23.710;2023-04-30T01:02:52;-14922.56;;;-144.67;100.00
21877;BME280;11103;43.788;23.710;2023-04-30T01:05:18;-14922.56;;;-144.67;100.00
21877;BME280;11103;43.788;23.710;2023-04-30T01:07:44;-14922.56;;;-144.67;100.00
21877;BME280;11103;43.788;23.710;2023-04-30T01:10:14;-14922.56;;;-144.67;100.00
21877;BME280;11103;43.788;23.710;2023-04-30T01:20:20;-14922.56;;;-144.67;100.00
21877;BME280;11103;43.788;23.710;2023-04-30T01:25:49;-14922.56;;;-144.67;100.00
21877;BME280;11103;43.788;23.710;2023-04-30T01:28:17;-14922.56;;;-144.67;100.00
21877;BME280;11103;43.788;23.710;2023-04-30T01:30:46;-14922.56;;;-144.67;100.00
21877;BME280;11103;43.788;23.710;2023-04-30T01:33:12;-14922.56;;;-144.67;100.00
21877;BME280;11103;43.788;23.710;2023-04-30T01:41:02;-14922.56;;;-144.67;100.00
21877;BME280;11103;43.788;23.710;2023-04-30T01:46:16;-14922.56;;;-144.67;100.00
21877;BME280;11103;43.788;23.710;2023-04-30T01:51:38;-14922.56;;;-144.67;100.00
21877;BME280;11103;43.788;23.710;2023-04-30T01:57:15;-14922.56;;;-144.67;100.00
21877;BME280;11103;43.788;23.710;2023-04-30T01:59:42;-14922.56;;;-144.67;100.00
21877;BME280;11103;43.788;23.710;2023-04-30T02:02:08;-14922.56;;;-144.67;100.00
21877;BME280;11103;43.788;23.710;2023-04-30T02:04:34;-14922.56;;;-144.67;100.00
21877;BME280;11103;43.788;23.710;2023-04-30T02:07:00;-14922.56;;;-144.67;100.00
21877;BME280;11103;43.788;23.710;2023-04-30T02:09:25;-14922.56;;;-144.67;100.00
21877;BME280;11103;43.788;23.710;2023-04-30T02:11:51;-14922.56;;;-144.67;100.00
21877;BME280;11103;43.788;23.710;2023-04-30T02:14:16;-14922.56;;;-144.67;100.00
21877;BME280;11103;43.788;23.710;2023-04-30T02:16:42;-14922.56;;;-144.67;100.00
21877;BME280;11103;43.788;23.710;2023-04-30T02:19:07;-14922.56;;;-144.67;100.00
21877;BME280;11103;43.788;23.710;2023-04-30T02:21:32;-14922.56;;;-144.67;100.00
21877;BME280;11103;43.788;23.710;2023-04-30T02:23:58;-14922.56;;;-144.67;100.00
21877;BME280;11103;43.788;23.710;2023-04-30T02:26:23;-14922.56;;;-144.67;100.00
21877;BME280;11103;43.788;23.710;2023-04-30T02:28:50;-14922.56;;;-144.67;100.00
21877;BME280;11103;43.788;23.710;2023-04-30T02:31:16;-14922.56;;;-144.67;100.00
21877;BME280;11103;43.788;23.710;2023-04-30T02:33:41;-14922.56;;;-144.67;100.00
21877;BME280;11103;43.788;23.710;2023-04-30T02:36:06;-14922.56;;;-144.67;100.00
21877;BME280;11103;43.788;23.710;2023-04-30T02:38:32;-14922.56;;;-144.67;100.00
21877;BME280;11103;43.788;23.710;2023-04-30T02:40:57;-14922.56;;;-144.67;100.00
21877;BME280;11103;43.788;23.710;2023-04-30T02:43:23;-14922.56;;;-144.67;100.00
21877;BME280;11103;43.788;23.710;2023-04-30T02:45:48;-14922.56;;;-144.67;100.00
21877;BME280;11103;43.788;23.710;2023-04-30T02:48:14;-14922.56;;;-144.67;100.00
21877;BME280;11103;43.788;23.710;2023-04-30T02:50:39;-14922.56;;;-144.67;100.00
21877;BME280;11103;43.788;23.710;2023-04-30T02:53:05;-14922.56;;;-144.67;100.00
21877;BME280;11103;43.788;23.710;2023-04-30T02:55:30;-14922.56;;;-144.67;100.00
21877;BME280;11103;43.788;23.710;2023-04-30T02:57:56;-14922.56;;;-144.67;100.00
21877;BME280;11103;43.788;23.710;2023-04-30T03:00:22;-14922.56;;;-144.67;100.00
21877;BME280;11103;43.788;23.710;2023-04-30T03:02:47;-14922.56;;;-144.67;100.00
21877;BME280;11103;43.788;23.710;2023-04-30T03:05:13;-14922.56;;;-144.67;100.00
21877;BME280;11103;43.788;23.710;2023-04-30T03:07:40;-14922.56;;;-144.67;100.00
21877;BME280;11103;43.788;23.710;2023-04-30T03:10:06;-14922.56;;;-144.67;100.00
21877;BME280;11103;43.788;23.710;2023-04-30T03:12:31;-14922.56;;;-144.67;100.00
21877;BME280;11103;43.788;23.710;2023-04-30T03:14:57;-14922.56;;;-144.67;100.00
21877;BME280;11103;43.788;23.710;2023-04-30T03:17:22;-14922.56;;;-144.67;100.00
21877;BME280;11103;43.788;23.710;2023-04-30T03:19:49;-14922.56;;;-144.67;100.00
21877;BME280;11103;43.788;23.710;2023-04-30T03:22:14;-14922.56;;;-144.67;100.00
21877;BME280;11103;43.788;23.710;2023-04-30T03:24:40;-14922.56;;;-144.67;100.00
21877;BME280;11103;43.788;23.710;2023-04-30T03:27:05;-14922.56;;;-144.67;100.00
21877;BME280;11103;43.788;23.710;2023-04-30T03:29:31;-14922.56;;;-144.67;100.00
21877;BME280;11103;43.788;23.710;2023-04-30T03:31:56;-14922.56;;;-144.67;100.00
21877;BME280;11103;43.788;23.710;2023-04-30T03:34:22;-14922.56;;;-144.67;100.00
21877;BME280;11103;43.788;23.710;2023-04-30T03:36:47;-14922.56;;;-144.67;100.00
21877;BME280;11103;43.788;23.710;2023-04-30T03:39:14;-14922.56;;;-144.67;100.00
21877;BME280;11103;43.788;23.710;2023-04-30T03:41:40;-14922.56;;;-144.67;100.00
21877;BME280;11103;43.788;23.710;2023-04-30T03:44:06;-14922.56;;;-144.67;100.00
21877;BME280;11103;43.788;23.710;2023-04-30T03:46:32;-14922.56;;;-144.67;100.00
21877;BME280;11103;43.788;23.710;2023-04-30T03:48:58;-14922.56;;;-144.67;100.00
21877;BME280;11103;43.788;23.710;2023-04-30T03:51:23;-14922.56;;;-144.67;100.00
21877;BME280;11103;43.788;23.710;2023-04-30T03:53:49;-14922.56;;;-144.67;100.00
21877;BME280;11103;43.788;23.710;2023-04-30T03:56:14;-14922.56;;;-144.67;100.00
21877;BME280;11103;43.788;23.710;2023-04-30T03:58:40;-14922.56;;;-144.67;100.00
21877;BME280;11103;43.788;23.710;2023-04-30T04:01:05;-14922.56;;;-144.67;100.00
21877;BME280;11103;43.788;23.710;2023-04-30T04:03:33;-14922.56;;;-144.67;100.00
21877;BME280;11103;43.788;23.710;2023-04-30T04:05:58;-14922.56;;;-144.67;100.00
21877;BME280;11103;43.788;23.710;2023-04-30T04:08:24;-14922.56;;;-144.67;100.00
21877;BME280;11103;43.788;23.710;2023-04-30T04:10:49;-14922.56;;;-144.67;100.00
21877;BME280;11103;43.788;23.710;2023-04-30T04:13:15;-14922.56;;;-144.67;100.00
21877;BME280;11103;43.788;23.710;2023-04-30T04:15:40;-14922.56;;;-144.67;100.00
21877;BME280;11103;43.788;23.710;2023-04-30T04:18:06;-14922.56;;;-144.67;100.00
21877;BME280;11103;43.788;23.710;2023-04-30T04:20:32;-14922.56;;;-144.67;100.00
21877;BME280;11103;43.788;23.710;2023-04-30T04:22:57;-14922.56;;;-144.67;100.00
21877;BME280;11103;43.788;23.710;2023-04-30T04:25:23;-14922.56;;;-144.67;100.00
21877;BME280;11103;43.788;23.710;2023-04-30T04:27:52;-14922.56;;;-144.67;100.00
21877;BME280;11103;43.788;23.710;2023-04-30T04:30:18;-14922.56;;;-144.67;100.00
21877;BME280;11103;43.788;23.710;2023-04-30T04:32:43;-14922.56;;;-144.67;100.00
21877;BME280;11103;43.788;23.710;2023-04-30T04:35:14;-14922.56;;;-144.67;100.00
21877;BME280;11103;43.788;23.710;2023-04-30T04:37:40;-14922.56;;;-144.67;100.00
21877;BME280;11103;43.788;23.710;2023-04-30T04:40:07;-14922.56;;;-144.67;100.00
21877;BME280;11103;43.788;23.710;2023-04-30T04:42:32;-14922.56;;;-144.67;100.00
21877;BME280;11103;43.788;23.710;2023-04-30T04:44:58;-14922.56;;;-144.67;100.00
21877;BME280;11103;43.788;23.710;2023-04-30T04:47:23;-14922.56;;;-144.67;100.00
21877;BME280;11103;43.788;23.710;2023-04-30T04:49:49;-14922.56;;;-144.67;100.00
21877;BME280;11103;43.788;23.710;2023-04-30T04:52:14;-14922.56;;;-144.67;100.00
21877;BME280;11103;43.788;23.710;2023-04-30T04:54:39;-14922.56;;;-144.67;100.00
21877;BME280;11103;43.788;23.710;2023-04-30T04:57:05;-14922.56;;;-144.67;100.00
21877;BME280;11103;43.788;23.710;2023-04-30T04:59:30;-14922.56;;;-144.67;100.00
21877;BME280;11103;43.788;23.710;2023-04-30T05:01:56;-14922.56;;;-144.67;100.00
21877;BME280;11103;43.788;23.710;2023-04-30T05:04:21;-14922.56;;;-144.67;100.00
21877;BME280;11103;43.788;23.710;2023-04-30T05:06:47;-14922.56;;;-144.67;100.00
21877;BME280;11103;43.788;23.710;2023-04-30T05:09:12;-14922.56;;;-144.67;100.00
21877;BME280;11103;43.788;23.710;2023-04-30T05:11:38;-14922.56;;;-144.67;100.00
21877;BME280;11103;43.788;23.710;2023-04-30T05:14:05;-14922.56;;;-144.67;100.00
21877;BME280;11103;43.788;23.710;2023-04-30T05:16:31;-14922.56;;;-144.67;100.00
21877;BME280;11103;43.788;23.710;2023-04-30T05:18:56;-14922.56;;;-144.67;100.00
21877;BME280;11103;43.788;23.710;2023-04-30T05:21:22;-14922.56;;;-144.67;100.00
21877;BME280;11103;43.788;23.710;2023-04-30T05:23:47;-14922.56;;;-144.67;100.00
21877;BME280;11103;43.788;23.710;2023-04-30T05:26:13;-14922.56;;;-144.67;100.00
21877;BME280;11103;43.788;23.710;2023-04-30T05:28:38;-14922.56;;;-144.67;100.00
21877;BME280;11103;43.788;23.710;2023-04-30T05:31:04;-14922.56;;;-144.67;100.00
21877;BME280;11103;43.788;23.710;2023-04-30T05:33:29;-14922.56;;;-144.67;100.00
21877;BME280;11103;43.788;23.710;2023-04-30T05:35:55;-14922.56;;;-144.67;100.00
21877;BME280;11103;43.788;23.710;2023-04-30T05:38:20;-14922.56;;;-144.67;100.00
21877;BME280;11103;43.788;23.710;2023-04-30T05:40:45;-14922.56;;;-144.67;100.00
21877;BME280;11103;43.788;23.710;2023-04-30T05:43:11;-14922.56;;;-144.67;100.00
21877;BME280;11103;43.788;23.710;2023-04-30T05:45:36;-14922.56;;;-144.67;100.00
21877;BME280;11103;43.788;23.710;2023-04-30T05:48:02;-14922.56;;;-144.67;100.00
21877;BME280;11103;43.788;23.710;2023-04-30T05:50:28;-14922.56;;;-144.67;100.00
21877;BME280;11103;43.788;23.710;2023-04-30T05:52:53;-14922.56;;;-144.67;100.00
21877;BME280;11103;43.788;23.710;2023-04-30T05:55:19;-14922.56;;;-144.67;100.00
21877;BME280;11103;43.788;23.710;2023-04-30T05:57:44;-14922.56;;;-144.67;100.00
21877;BME280;11103;43.788;23.710;2023-04-30T06:00:10;-14922.56;;;-144.67;100.00
21877;BME280;11103;43.788;23.710;2023-04-30T06:02:36;-14922.56;;;-144.67;100.00
21877;BME280;11103;43.788;23.710;2023-04-30T06:05:02;-14922.56;;;-144.67;100.00
21877;BME280;11103;43.788;23.710;2023-04-30T06:07:27;-14922.56;;;-144.67;100.00
21877;BME280;11103;43.788;23.710;2023-04-30T06:09:53;-14922.56;;;-144.67;100.00
21877;BME280;11103;43.788;23.710;2023-04-30T06:12:18;-14922.56;;;-144.67;100.00
21877;BME280;11103;43.788;23.710;2023-04-30T06:14:43;-14922.56;;;-144.67;100.00
21877;BME280;11103;43.788;23.710;2023-04-30T06:17:11;-14922.56;;;-144.67;100.00
21877;BME280;11103;43.788;23.710;2023-04-30T06:19:36;-14922.56;;;-144.67;100.00
21877;BME280;11103;43.788;23.710;2023-04-30T06:22:03;-14922.56;;;-144.67;100.00
21877;BME280;11103;43.788;23.710;2023-04-30T06:24:28;-14922.56;;;-144.67;100.00
21877;BME280;11103;43.788;23.710;2023-04-30T06:26:54;-14922.56;;;-144.67;100.00
21877;BME280;11103;43.788;23.710;2023-04-30T06:29:20;-14922.56;;;-144.67;100.00
21877;BME280;11103;43.788;23.710;2023-04-30T06:31:45;-14922.56;;;-144.67;100.00
21877;BME280;11103;43.788;23.710;2023-04-30T06:34:10;-14922.56;;;-144.67;100.00
21877;BME280;11103;43.788;23.710;2023-04-30T06:36:36;-14922.56;;;-144.67;100.00
21877;BME280;11103;43.788;23.710;2023-04-30T06:39:01;-14922.56;;;-144.67;100.00
21877;BME280;11103;43.788;23.710;2023-04-30T06:41:27;-14922.56;;;-144.67;100.00
21877;BME280;11103;43.788;23.710;2023-04-30T06:43:52;-14922.56;;;-144.67;100.00
21877;BME280;11103;43.788;23.710;2023-04-30T06:46:18;-14922.56;;;-144.67;100.00
21877;BME280;11103;43.788;23.710;2023-04-30T06:48:43;-14922.56;;;-144.67;100.00
21877;BME280;11103;43.788;23.710;2023-04-30T06:51:08;-14922.56;;;-144.67;100.00
21877;BME280;11103;43.788;23.710;2023-04-30T06:53:34;-14922.56;;;-144.67;100.00
21877;BME280;11103;43.788;23.710;2023-04-30T06:55:59;-14922.56;;;-144.67;100.00
21877;BME280;11103;43.788;23.710;2023-04-30T06:58:25;-14922.56;;;-144.67;100.00
21877;BME280;11103;43.788;23.710;2023-04-30T07:00:50;-14922.56;;;-144.67;100.00
21877;BME280;11103;43.788;23.710;2023-04-30T07:03:16;-14922.56;;;-144.67;100.00
21877;BME280;11103;43.788;23.710;2023-04-30T07:05:41;-14922.56;;;-144.67;100.00
21877;BME280;11103;43.788;23.710;2023-04-30T07:08:07;-14922.56;;;-144.67;100.00
21877;BME280;11103;43.788;23.710;2023-04-30T07:10:33;-14922.56;;;-144.67;100.00
21877;BME280;11103;43.788;23.710;2023-04-30T07:12:58;-14922.56;;;-144.67;100.00
21877;BME280;11103;43.788;23.710;2023-04-30T07:15:24;-14922.56;;;-144.67;100.00
21877;BME280;11103;43.788;23.710;2023-04-30T07:17:49;-14922.56;;;-144.67;100.00
21877;BME280;11103;43.788;23.710;2023-04-30T07:20:15;-14922.56;;;-144.67;100.00
21877;BME280;11103;43.788;23.710;2023-04-30T07:22:41;-14922.56;;;-144.67;100.00
21877;BME280;11103;43.788;23.710;2023-04-30T07:25:09;-14922.56;;;-144.67;100.00
21877;BME280;11103;43.788;23.710;2023-04-30T07:27:34;-14922.56;;;-144.67;100.00
21877;BME280;11103;43.788;23.710;2023-04-30T07:29:59;-14922.56;;;-144.67;100.00
21877;BME280;11103;43.788;23.710;2023-04-30T07:32:25;-14922.56;;;-144.67;100.00
21877;BME280;11103;43.788;23.710;2023-04-30T07:34:52;-14922.56;;;-144.67;100.00
21877;BME280;11103;43.788;23.710;2023-04-30T07:37:17;-14922.56;;;-144.67;100.00
21877;BME280;11103;43.788;23.710;2023-04-30T07:39:43;-14922.56;;;-144.67;100.00
21877;BME280;11103;43.788;23.710;2023-04-30T07:42:08;-14922.56;;;-144.67;100.00
21877;BME280;11103;43.788;23.710;2023-04-30T07:44:34;-14922.56;;;-144.67;100.00
21877;BME280;11103;43.788;23.710;2023-04-30T07:46:59;-14922.56;;;-144.67;100.00
21877;BME280;11103;43.788;23.710;2023-04-30T07:49:24;-14922.56;;;-144.67;100.00
21877;BME280;11103;43.788;23.710;2023-04-30T07:51:50;-14922.56;;;-144.67;100.00
21877;BME280;11103;43.788;23.710;2023-04-30T07:54:16;-14922.56;;;-144.67;100.00
21877;BME280;11103;43.788;23.710;2023-04-30T07:56:41;-14922.56;;;-144.67;100.00
21877;BME280;11103;43.788;23.710;2023-04-30T07:59:07;-14922.56;;;-144.67;100.00
21877;BME280;11103;43.788;23.710;2023-04-30T08:01:32;-14922.56;;;-144.67;100.00
21877;BME280;11103;43.788;23.710;2023-04-30T08:03:57;-14922.56;;;-144.67;100.00
21877;BME280;11103;43.788;23.710;2023-04-30T08:06:24;-14922.56;;;-144.67;100.00
21877;BME280;11103;43.788;23.710;2023-04-30T08:08:49;-14922.56;;;-144.67;100.00
21877;BME280;11103;43.788;23.710;2023-04-30T08:11:15;-14922.56;;;-144.67;100.00
21877;BME280;11103;43.788;23.710;2023-04-30T08:13:41;-14922.56;;;-144.67;100.00
21877;BME280;11103;43.788;23.710;2023-04-30T08:16:07;-14922.56;;;-144.67;100.00
21877;BME280;11103;43.788;23.710;2023-04-30T08:18:32;-14922.56;;;-144.67;100.00
21877;BME280;11103;43.788;23.710;2023-04-30T08:20:58;-14922.56;;;-144.67;100.00
21877;BME280;11103;43.788;23.710;2023-04-30T08:23:24;-14922.56;;;-144.67;100.00
21877;BME280;11103;43.788;23.710;2023-04-30T08:25:50;-14922.56;;;-144.67;100.00
21877;BME280;11103;43.788;23.710;2023-04-30T08:28:15;-14922.56;;;-144.67;100.00
21877;BME280;11103;43.788;23.710;2023-04-30T08:30:41;-14922.56;;;-144.67;100.00
21877;BME280;11103;43.788;23.710;2023-04-30T08:33:07;-14922.56;;;-144.67;100.00
21877;BME280;11103;43.788;23.710;2023-04-30T08:35:33;-14922.56;;;-144.67;100.00
21877;BME280;11103;43.788;23.710;2023-04-30T08:37:58;-14922.56;;;-144.67;100.00
21877;BME280;11103;43.788;23.710;2023-04-30T08:40:25;-14922.56;;;-144.67;100.00
21877;BME280;11103;43.788;23.710;2023-04-30T08:43:11;-14922.56;;;-144.67;100.00
21877;BME280;11103;43.788;23.710;2023-04-30T08:45:38;-14922.56;;;-144.67;100.00
21877;BME280;11103;43.788;23.710;2023-04-30T08:48:09;-14922.56;;;-144.67;100.00
21877;BME280;11103;43.788;23.710;2023-04-30T08:50:35;-14184.13;;;-144.67;100.00
21877;BME280;11103;43.788;23.710;2023-04-30T08:53:01;-14429.81;;;-144.67;100.00
21877;BME280;11103;43.788;23.710;2023-04-30T08:55:27;-14922.56;;;-144.67;100.00
21877;BME280;11103;43.788;23.710;2023-04-30T08:57:52;-14922.56;;;-144.67;100.00
21877;BME280;11103;43.788;23.710;2023-04-30T09:00:18;-14922.56;;;-144.67;100.00
21877;BME280;11103;43.788;23.710;2023-04-30T09:02:44;-14922.56;;;-144.67;100.00
21877;BME280;11103;43.788;23.710;2023-04-30T09:05:12;-14922.56;;;-144.67;100.00
21877;BME280;11103;43.788;23.710;2023-04-30T09:07:39;-14922.56;;;-144.67;100.00
21877;BME280;11103;43.788;23.710;2023-04-30T09:10:13;-14922.56;;;-144.67;100.00
21877;BME280;11103;43.788;23.710;2023-04-30T09:12:40;-14922.56;;;-144.67;100.00
21877;BME280;11103;43.788;23.710;2023-04-30T09:15:08;-14922.56;;;-144.67;100.00
21877;BME280;11103;43.788;23.710;2023-04-30T09:17:34;-14922.56;;;-144.67;100.00
21877;BME280;11103;43.788;23.710;2023-04-30T09:22:33;-14922.56;;;-144.67;100.00
21877;BME280;11103;43.788;23.710;2023-04-30T09:24:59;-14921.13;;;-144.67;100.00
21877;BME280;11103;43.788;23.710;2023-04-30T09:27:24;-14922.56;;;-144.67;100.00
21877;BME280;11103;43.788;23.710;2023-04-30T09:29:50;-14922.56;;;-144.67;100.00
21877;BME280;11103;43.788;23.710;2023-04-30T09:32:15;-13938.44;;;-144.67;100.00
21877;BME280;11103;43.788;23.710;2023-04-30T09:34:41;-12463.84;;;-144.67;100.00
21877;BME280;11103;43.788;23.710;2023-04-30T09:37:08;-12463.84;;;-144.67;100.00
21877;BME280;11103;43.788;23.710;2023-04-30T09:39:45;-5573.53;;;-144.67;100.00
21877;BME280;11103;43.788;23.710;2023-04-30T09:42:11;-11726.28;;;-144.67;100.00
21877;BME280;11103;43.788;23.710;2023-04-30T09:44:39;-13446.97;;;-144.67;100.00
21877;BME280;11103;43.788;23.710;2023-04-30T09:47:19;-14675.47;;;-144.67;100.00
21877;BME280;11103;43.788;23.710;2023-04-30T09:49:49;-14922.56;;;-144.67;100.00
21877;BME280;11103;43.788;23.710;2023-04-30T09:52:18;-14675.47;;;-144.67;100.00
21877;BME280;11103;43.788;23.710;2023-04-30T09:54:44;-14922.56;;;-144.67;100.00
21877;BME280;11103;43.788;23.710;2023-04-30T09:57:12;-14429.81;;;-144.67;100.00
21877;BME280;11103;43.788;23.710;2023-04-30T09:59:44;-11972.16;;;-144.67;100.00
21877;BME280;11103;43.788;23.710;2023-04-30T10:02:13;1331.34;;;-144.67;100.00
21877;BME280;11103;43.788;23.710;2023-04-30T10:04:42;1825.09;;;-144.67;100.00
21877;BME280;11103;43.788;23.710;2023-04-30T10:07:13;-6066.19;;;-144.67;100.00
21877;BME280;11103;43.788;23.710;2023-04-30T10:09:49;-11480.41;;;-144.67;100.00
21877;BME280;11103;43.788;23.710;2023-04-30T10:12:19;-396.25;;;-144.67;100.00
21877;BME280;11103;43.788;23.710;2023-04-30T10:15:25;-2369.50;;;-144.67;100.00
21877;BME280;11103;43.788;23.710;2023-04-30T10:17:58;4295.03;;;-144.67;100.00
21877;BME280;11103;43.788;23.710;2023-04-30T10:20:25;4295.03;;;-144.67;100.00
21877;BME280;11103;43.788;23.710;2023-04-30T10:22:52;8745.56;;;-144.67;100.00
21877;BME280;11103;43.788;23.710;2023-04-30T10:25:17;22133.31;;;-144.67;99.83
21877;BME280;11103;43.788;23.710;2023-04-30T10:27:45;6519.56;;;-144.67;100.00
21877;BME280;11103;43.788;23.710;2023-04-30T10:30:10;24121.28;;;-144.67;98.40
21877;BME280;11103;43.788;23.710;2023-04-30T10:32:43;21139.75;;;-144.67;99.91
21877;BME280;11103;43.788;23.710;2023-04-30T10:35:19;17416.63;;;-144.67;100.00
21877;BME280;11103;43.788;23.710;2023-04-30T10:37:53;34827.00;;;-144.67;93.99
21877;BME280;11103;43.788;23.710;2023-04-30T10:40:19;43566.28;;;-144.67;91.79
21877;BME280;11103;43.788;23.710;2023-04-30T10:42:46;66552.25;;;-144.67;86.23
21877;BME280;11103;43.788;23.710;2023-04-30T10:45:12;71677.06;;;-144.67;85.27
21877;BME280;11103;43.788;23.710;2023-04-30T10:47:41;70147.06;;;-144.67;85.91
21877;BME280;11103;43.788;23.710;2023-04-30T10:50:10;81374.88;;;-144.67;81.88
21877;BME280;11103;43.788;23.710;2023-04-30T10:52:37;73253.03;;;-144.67;84.95
21877;BME280;11103;43.788;23.710;2023-04-30T10:55:09;81730.44;;;-144.67;81.75
21877;BME280;11103;43.788;23.710;2023-04-30T10:57:41;85003.06;;;-144.67;77.38
21877;BME280;11103;43.788;23.710;2023-04-30T11:02:41;85546.84;;;-144.67;73.49
21877;BME280;11103;43.788;23.710;2023-04-30T11:05:13;85351.06;;;-144.67;75.80
21877;BME280;11103;43.788;23.710;2023-04-30T11:07:55;73298.34;;;-144.67;84.78
21877;BME280;11103;43.788;23.710;2023-04-30T11:10:22;84321.00;;;-144.67;79.04
21877;BME280;11103;43.788;23.710;2023-04-30T11:12:53;66308.41;;;-144.67;85.53
21877;BME280;11103;43.788;23.710;2023-04-30T11:15:20;40567.41;;;-144.67;92.09
21877;BME280;11103;43.788;23.710;2023-04-30T11:17:49;19650.00;;;-144.67;99.90
21877;BME280;11103;43.788;23.710;2023-04-30T11:20:19;31835.88;;;-144.67;94.42
21877;BME280;11103;43.788;23.710;2023-04-30T11:22:45;34577.63;;;-144.67;93.71
21877;BME280;11103;43.788;23.710;2023-04-30T11:25:12;44066.38;;;-144.67;90.08
21877;BME280;11103;43.788;23.710;2023-04-30T11:27:40;49321.66;;;-144.67;89.01
21877;BME280;11103;43.788;23.710;2023-04-30T11:30:12;36822.53;;;-144.67;93.10
21877;BME280;11103;43.788;23.710;2023-04-30T11:32:40;51075.22;;;-144.67;88.56
21877;BME280;11103;43.788;23.710;2023-04-30T11:35:06;48820.78;;;-144.67;88.93
21877;BME280;11103;43.788;23.710;2023-04-30T11:37:38;62872.84;;;-144.67;85.96
21877;BME280;11103;43.788;23.710;2023-04-30T11:40:06;66686.00;;;-144.67;84.77
21877;BME280;11103;43.788;23.710;2023-04-30T11:42:35;84888.41;;;-144.67;75.43
21877;BME280;11103;43.788;23.710;2023-04-30T11:45:11;85121.69;;;-144.67;73.90
21877;BME280;11103;43.788;23.710;2023-04-30T11:47:41;81795.59;;;-144.67;80.04
21877;BME280;11103;43.788;23.710;2023-04-30T11:50:09;83030.41;;;-144.67;79.50
21877;BME280;11103;43.788;23.710;2023-04-30T11:52:34;84929.91;;;-144.67;75.44
21877;BME280;11103;43.788;23.710;2023-04-30T11:55:04;84487.06;;;-144.67;76.88
21877;BME280;11103;43.788;23.710;2023-04-30T11:57:38;85080.19;;;-144.67;73.29
21877;BME280;11103;43.788;23.710;2023-04-30T12:00:14;84755.94;;;-144.67;66.27
21877;BME280;11103;43.788;23.710;2023-04-30T12:02:41;84931.91;;;-144.67;69.04
21877;BME280;11103;43.788;23.710;2023-04-30T12:05:20;84805.34;;;-144.67;66.26
21877;BME280;11103;43.788;23.710;2023-04-30T12:08:00;84629.41;;;-144.67;62.65
21877;BME280;11103;43.788;23.710;2023-04-30T12:10:30;84526.59;;;-144.67;62.38
21877;BME280;11103;43.788;23.710;2023-04-30T12:12:55;84550.31;;;-144.67;62.86
21877;BME280;11103;43.788;23.710;2023-04-30T12:15:23;84447.53;;;-144.67;61.01
21877;BME280;11103;43.788;23.710;2023-04-30T12:17:52;84279.50;;;-144.67;57.69
21877;BME280;11103;43.788;23.710;2023-04-30T12:20:19;84459.41;;;-144.67;60.09
21877;BME280;11103;43.788;23.710;2023-04-30T12:22:46;84443.56;;;-144.67;59.08
21877;BME280;11103;43.788;23.710;2023-04-30T12:25:16;84293.34;;;-144.67;55.70
21877;BME280;11103;43.788;23.710;2023-04-30T12:27:49;84315.09;;;-144.67;57.41
21877;BME280;11103;43.788;23.710;2023-04-30T12:30:24;84073.94;;;-144.67;52.95
21877;BME280;11103;43.788;23.710;2023-04-30T12:32:56;84052.19;;;-144.67;56.05
21877;BME280;11103;43.788;23.710;2023-04-30T12:35:22;83939.50;;;-144.67;52.81
21877;BME280;11103;43.788;23.710;2023-04-30T12:37:50;83882.19;;;-144.67;52.29
21877;BME280;11103;43.788;23.710;2023-04-30T12:40:17;83803.13;;;-144.67;49.06
21877;BME280;11103;43.788;23.710;2023-04-30T12:42:44;83749.78;;;-144.67;50.75
21877;BME280;11103;43.788;23.710;2023-04-30T12:45:11;83672.69;;;-144.67;50.05